MMLM/LMM METAR and TAF weather

Enter ICAO airport designator
Station Type Date Time Source
MMLM METAR 2019/06/18 03:42 UTC NOAA

MMLM 180342Z 20004KT 10SM FEW250 27/21 A2980 RMK 8/001


Station Type Date Time Source
MMLM Decoded METAR 2019/06/18 03:42 UTC NOAA

Los Mochis Airport, Mexico (MMLM) 25-41N 109-05W
Jun 17, 2019 - 11:42 PM EDT / 2019.06.18 0342 UTC
Wind: from the SSW (200 degrees) at 5 MPH (4 KT):0
Visibility: 10 mile(s):0
Sky conditions: mostly clear
Temperature: 80 F (27 C)
Dew Point: 69 F (21 C)
Relative Humidity: 69%
Pressure (altimeter): 29.8 in. Hg (1009 hPa)
ob: MMLM 180342Z 20004KT 10SM FEW250 27/21 A2980 RMK 8/001
cycle: 3

Station Type Date Time Source
MMLM TAF 2019/06/17 18:39 UTC NOAA

TAF MMLM 171636Z 1718/1818 12010KT P6SM SKC
FM172100 23015KT P6SM SCT250
FM180300 12010KT P6SM SKC

Example: see airport list